Gothenburg, NE

6:04 AM CST on December 28, 2014 (GMT -0600)
KNEGOTHE4 | Change Station
CLOSE
Current Station
Personal Weather Station
Location: Gothenburg, NE
Elevation: 2572 ft
Nearby Weather Stations

Elev 2572 ft 40.92 °N, 100.17 °W | Updated 34 seconds ago

Clear
Clear
4.0 °F
Feels Like 4 °F
N
1.0
Wind Variable Wind from WNW
Gusts 1.0 mph

Today
High -- | Low -- °F
--% Chance of Precip.
Yesterday
High -- | Low -- °F
Precip. -- in
8:04 AM 5:20 PM
Waxing Crescent, 47% visible
Pressure 30.07 in
Visibility 10.0 miles
Clouds Clear
Windchill 4 °F
Dew Point -1 °F
Humidity 79%
Rainfall 0.00 in
Snow Depth Not available.
UV 0 out of 12
Pollen .10 out of 12
Air Quality Not available.
Flu Activity Not available.
METAR KLXN 281155Z AUTO 30009KT 10SM CLR M14/M15 A3007 RMK AO2 T11381155 11138 21176

More Conditions Fewer Conditions

Pressure 30.07 in
Visibility 10.0 miles
Clouds Clear
Windchill 4 °F
Dew Point -1 °F
Humidity 79%
Rainfall 0.00 in
Snow Depth Not available.
UV 0 out of 12
Pollen .10 out of 12
Air Quality Not available.
Flu Activity Not available.
METAR KLXN 281155Z AUTO 30009KT 10SM CLR M14/M15 A3007 RMK AO2 T11381155 11138 21176

More Conditions Fewer Conditions

10-Day Weather Forecast

Almanac

Astronomy

Dec. 28, 2014 Rise Set
Actual Time
Civil Twilight
Nautical Twilight
Astronomical Twilight
Moon
Length of Visible Light
Length of Day
Tomorrow will be .
, % of the Moon is Illuminated

Today's Extremes

State Highs State Lows

Community

WunderPhotos

Upload Photos

1,781,231 photos uploaded!

WunderBlogs® & News

Nearby

Air Quality

  Air Quality AQ Index Pollutant
Not available.

Snow Depth

Station Depth Elevation

Earthquake Activity

City Distance Mag. Time & Date
Minimum magnitude displayed is 2.5.

Coastal Water Temperatures

Place Temperature

Nearby Weather Stations